Latest Coastal Weather Observations for Whyalla

IDS60701

Issued at 10:05 am CST Thursday 24 April 2014 (issued every 10 minutes, with the page automatically refreshed every 10 minutes)

About coastal observations | Map of coastal stations | Coastal observations for SA | Marine services | Other Formats
Station Details ID: 018120 Name: WHYALLA AERO Lat: -33.05 Lon: 137.52 Height: 6.5 m
Data from the previous 72 hours. | See also: Recent months at Whyalla
Date/Time
CST
Temp

°C
Wind Pressure Rain
since 9am
mm
Weather Cloud Vis
km
Sea
Height
m
Swell
Dir
 
Speed
knots
Gust
knots
hPa Trend Height
m
Period
s
Dir
24/10:00am 18.7 SSW 8 11 1018.6 - 0.0 - - 10 - - - -
24/09:30am 17.7 SW 7 9 1019.0 - 0.0 - - 10 - - - -
24/09:00am 16.5 W 4 6 1018.8 - 0.0 - - 10 - - - -
24/08:30am 14.7 NW 4 5 1018.8 - 0.0 - - 10 - - - -
24/08:00am 12.7 NW 5 5 1018.3 - 0.0 - - 10 - - - -
24/07:30am 10.5 NW 4 6 1018.1 - 0.0 - - 10 - - - -
24/07:00am 8.9 NNW 5 6 1017.9 - 0.0 - - 10 - - - -
24/06:30am 9.2 NW 4 5 1017.6 - 0.0 - - 10 - - - -
24/06:00am 9.2 NW 6 7 1017.2 - 0.0 - - 10 - - - -
24/05:30am 9.4 NNW 5 5 1017.0 - 0.0 - - 10 - - - -
24/05:00am 9.3 NW 6 6 1016.8 - 0.0 - - 10 - - - -
24/04:30am 10.6 N 4 5 1016.6 - 0.0 - - 10 - - - -
24/04:00am 9.8 NW 5 6 1016.5 - 0.0 - - 10 - - - -
24/03:30am 10.1 N 5 6 1016.3 - 0.0 - - 10 - - - -
24/03:00am 9.2 NW 5 7 1016.1 - 0.0 - - 10 - - - -
24/02:30am 10.0 NW 3 4 1016.4 - 0.0 - - 10 - - - -
24/02:00am 12.4 SW 5 8 1016.5 - 0.0 - - 10 - - - -
24/01:30am 11.1 SW 5 8 1016.6 - 0.0 - - 10 - - - -
24/01:00am 10.9 WSW 5 7 1016.5 - 0.0 - - 10 - - - -
24/12:30am 11.0 WSW 6 7 1016.5 - 0.0 - - 10 - - - -
24/12:00am 10.1 W 8 9 1016.4 - 0.0 - - 10 - - - -
 
Date/Time
CST
Temp

°C
Wind Pressure Rain
since 9am
mm
Weather Cloud Vis
km
Sea
Height
m
Swell
Dir
 
Speed
knots
Gust
knots
hPa Trend Height
m
Period
s
Dir
23/11:30pm 10.1 W 7 9 1016.5 - 0.0 - - 10 - - - -
23/11:00pm 10.0 NW 5 6 1016.3 - 0.0 - - 10 - - - -
23/10:30pm 10.0 NW 5 6 1016.2 - 0.0 - - 10 - - - -
23/10:00pm 10.4 NW 6 8 1016.1 - 0.0 - - 10 - - - -
23/09:30pm 10.9 NW 5 6 1016.0 - 0.0 - - 10 - - - -
23/09:00pm 10.7 NW 5 7 1015.8 - 0.0 - - 10 - - - -
23/08:30pm 11.3 WNW 4 4 1015.8 - 0.0 - - 10 - - - -
23/08:00pm 12.0 W 4 5 1015.7 - 0.0 - - 10 - - - -
23/07:30pm 13.2 CALM 0 0 1015.8 - 0.0 - - 10 - - - -
23/07:00pm 13.8 S 1 3 1015.6 - 0.0 - - 10 - - - -
23/06:30pm 14.8 S 3 5 1015.2 - 0.0 - - 10 - - - -
23/06:00pm 16.9 S 4 5 1015.0 - 0.0 - - 10 - - - -
23/05:30pm 18.1 SSE 4 6 1014.9 - 0.0 - - 10 - - - -
23/05:00pm 18.8 SSE 6 8 1014.7 - 0.0 - - 10 - - - -
23/04:30pm 19.3 SSE 7 9 1014.6 - 0.0 - - 10 - - - -
23/04:00pm 19.4 SSE 7 9 1014.6 - 0.0 - - 10 - - - -
23/03:30pm 19.4 SSE 7 10 1014.8 - 0.0 - - 10 - - - -
23/03:00pm 19.5 S 8 11 1014.7 - 0.0 - - 10 - - - -
23/02:30pm 19.6 SSE 8 11 1014.8 - 0.0 - - 10 - - - -
23/02:00pm 19.3 SSE 8 11 1014.9 - 0.0 - - 10 - - - -
23/01:30pm 19.3 SE 9 13 1015.1 - 0.0 - - 10 - - - -
23/01:00pm 19.6 SSE 9 12 1015.6 - 0.0 - - 10 - - - -
23/12:30pm 19.4 SSE 9 14 1016.0 - 0.0 - - 10 - - - -
23/12:00pm 18.8 S 10 13 1016.6 - 0.0 - - 10 - - - -
23/11:30am 18.6 S 10 15 1017.1 - 0.0 - - 10 - - - -
23/11:00am 18.4 S 10 13 1017.4 - 0.0 - - 10 - - - -
23/10:30am 18.0 S 9 12 1017.6 - 0.0 - - 10 - - - -
23/10:00am 17.6 S 8 12 1017.6 - 0.0 - - 10 - - - -
23/09:30am 17.0 S 8 11 1017.7 - 0.0 - - 10 - - - -
23/09:00am 16.3 SSW 6 8 1017.5 - 0.0 - - 10 - - - -
23/08:30am 14.3 CALM 0 0 1017.6 - 0.0 - - 10 - - - -
23/08:00am 12.2 W 1 4 1017.4 - 0.0 - - 10 - - - -
23/07:30am 10.3 SW 6 7 1017.1 - 0.0 - - 10 - - - -
23/07:00am 8.6 WSW 6 7 1016.9 - 0.0 - - 10 - - - -
23/06:30am 8.6 W 3 4 1016.8 - 0.0 - - 10 - - - -
23/06:00am 9.2 WSW 4 6 1016.6 - 0.0 - - 10 - - - -
23/05:30am 9.5 WSW 8 9 1016.8 - 0.0 - - 10 - - - -
23/05:00am 9.1 WSW 8 8 1016.6 - 0.0 - - 10 - - - -
23/04:30am 8.3 W 5 6 1016.7 - 0.0 - - 10 - - - -
23/04:00am 8.9 WNW 4 5 1016.7 - 0.0 - - 10 - - - -
23/03:30am 9.7 WSW 6 8 1016.9 - 0.0 - - 10 - - - -
23/03:00am 9.4 W 3 5 1017.0 - 0.0 - - 10 - - - -
23/02:30am 12.7 S 5 6 1017.4 - 0.0 - - 10 - - - -
23/02:00am 14.2 SSE 6 8 1017.4 - 0.0 - - 10 - - - -
23/01:30am 14.4 SE 6 7 1017.9 - 0.0 - - 10 - - - -
23/01:00am 14.6 SE 6 7 1018.2 - 0.0 - - 10 - - - -
23/12:30am 15.4 SE 8 11 1018.3 - 0.0 - - 10 - - - -
23/12:00am 16.0 ESE 9 14 1018.2 - 0.0 - - 10 - - - -
 
Date/Time
CST
Temp

°C
Wind Pressure Rain
since 9am
mm
Weather Cloud Vis
km
Sea
Height
m
Swell
Dir
 
Speed
knots
Gust
knots
hPa Trend Height
m
Period
s
Dir
22/11:30pm 15.9 SE 7 12 1018.4 - 0.0 - - 10 - - - -
22/11:00pm 16.5 SE 9 14 1018.4 - 0.0 - - 10 - - - -
22/10:30pm 16.6 SE 9 12 1018.5 - 0.0 - - 10 - - - -
22/10:00pm 16.8 SSE 9 13 1018.3 - 0.0 - - 10 - - - -
22/09:30pm 17.0 SSE 10 14 1018.2 - 0.0 - - 10 - - - -
22/09:00pm 17.1 SSE 11 14 1018.1 - 0.0 - - 10 - - - -
22/08:30pm 17.2 S 12 18 1018.2 - 0.0 - - 10 - - - -
22/08:00pm 17.3 S 13 18 1018.2 - 0.0 - - 10 - - - -
22/07:30pm 17.1 SSW 13 19 1017.9 - 0.0 - - 10 - - - -
22/07:00pm 17.0 SSW 14 21 1017.6 - 0.0 - - 10 - - - -
22/06:30pm 17.1 SSW 12 15 1017.6 - 0.0 - - 10 - - - -
22/06:00pm 17.7 SSW 13 18 1017.1 - 0.0 - - 10 - - - -
22/05:30pm 17.9 S 15 19 1017.0 - 0.0 - - 10 - - - -
22/05:00pm 18.7 S 15 21 1016.7 - 0.0 - - 10 - - - -
22/04:30pm 19.2 S 15 20 1016.6 - 0.0 - - 10 - - - -
22/04:00pm 19.4 S 16 21 1016.5 - 0.0 - - 10 - - - -
22/03:30pm 19.9 SSW 20 24 1016.4 - 0.0 - - 10 - - - -
22/03:00pm 19.1 S 17 22 1016.3 - 0.0 - - 10 - - - -
22/02:30pm 19.3 S 19 23 1016.4 - 0.0 - - 10 - - - -
22/02:00pm 19.5 S 17 23 1016.5 - 0.0 - - 10 - - - -
22/01:30pm 19.4 S 15 21 1016.6 - 0.0 - - 10 - - - -
22/01:00pm 19.7 S 15 22 1016.8 - 0.0 - - 10 - - - -
22/12:30pm 19.7 S 16 21 1017.3 - 0.0 - - 10 - - - -
22/12:00pm 19.8 S 16 22 1017.4 - 0.0 - Mostly clear 10 - - - -
22/11:30am 19.3 S 16 21 1017.6 - 0.0 - Partly cloudy 10 - - - -
22/11:00am 19.4 S 15 21 1017.6 - 0.0 - - 10 - - - -
22/10:30am 18.8 S 15 20 1017.5 - 0.0 - - 10 - - - -
22/10:00am 18.7 S 15 19 1017.5 - 0.0 - Partly cloudy 10 - - - -
22/09:30am 18.6 S 16 20 1017.3 - 0.0 - Partly cloudy 10 - - - -
22/09:00am 18.5 S 13 19 1017.0 - 0.0 - Cloudy 10 - - - -
22/08:30am 18.2 SSE 11 16 1016.9 - 0.0 - Cloudy 10 - - - -
22/08:24am 18.1 SSE 12 17 1016.8 - 0.0 - Cloudy 10 - - - -
22/08:05am 17.5 SSW 10 13 1016.5 - 0.0 - Partly cloudy 10 - - - -
22/08:00am 17.5 SSW 10 13 1016.4 - 0.0 - Cloudy 10 - - - -
22/07:30am 17.0 SSW 10 13 1016.2 - 0.0 - Partly cloudy 10 - - - -
22/07:00am 16.2 SSW 7 9 1015.8 - 0.0 - Partly cloudy 10 - - - -
22/06:30am 16.8 SSW 6 8 1015.5 - 0.0 - Cloudy 10 - - - -
22/06:20am 16.9 SSW 7 8 1015.3 - 0.0 - Partly cloudy 10 - - - -
22/06:00am 16.8 SSW 6 8 1015.0 - 0.0 - Cloudy 10 - - - -
22/05:48am 16.5 SSW 6 7 1014.9 - 0.0 - Partly cloudy 10 - - - -
22/05:30am 16.5 SSW 7 9 1014.7 - 0.0 - - 10 - - - -
22/05:00am 16.7 SSW 8 10 1014.2 - 0.0 - - 10 - - - -
22/04:30am 16.9 SSW 8 11 1014.0 - 0.0 - - 10 - - - -
22/04:00am 16.6 WSW 6 9 1013.8 - 0.0 - - 10 - - - -
22/03:30am 16.2 SW 7 9 1013.4 - 0.0 - - 10 - - - -
22/03:00am 16.0 SW 6 10 1012.8 - 0.0 - - 10 - - - -
22/02:30am 14.8 NW 1 3 1012.8 - 0.0 - - 10 - - - -
22/02:00am 16.5 SSW 3 4 1012.8 - 0.0 - - 10 - - - -
22/01:30am 16.8 SW 6 7 1012.4 - 0.0 - - 10 - - - -
22/01:00am 20.3 WNW 9 12 1012.0 - 0.0 - - 10 - - - -
22/12:30am 21.5 NNW 13 17 1011.4 - 0.0 - - 10 - - - -
22/12:00am 21.9 NNW 14 19 1011.3 - 0.0 - - 10 - - - -
 
Date/Time
CST
Temp

°C
Wind Pressure Rain
since 9am
mm
Weather Cloud Vis
km
Sea
Height
m
Swell
Dir
 
Speed
knots
Gust
knots
hPa Trend Height
m
Period
s
Dir
21/11:30pm 21.8 NNW 13 16 1011.3 - 0.0 - - 10 - - - -
21/11:00pm 21.8 N 12 15 1011.5 - 0.0 - - 10 - - - -
21/10:30pm 23.0 N 13 16 1011.3 - 0.0 - - 10 - - - -
21/10:00pm 24.1 N 14 20 1011.7 - 0.0 - - 10 - - - -
21/09:30pm 24.6 N 12 16 1011.9 - 0.0 - - 10 - - - -
21/09:00pm 24.6 N 12 16 1011.7 - 0.0 - - 10 - - - -
21/08:30pm 24.0 N 11 14 1011.8 - 0.0 - - 10 - - - -
21/08:00pm 24.0 N 11 13 1011.8 - 0.0 - - 10 - - - -
21/07:30pm 24.2 N 11 13 1011.8 - 0.0 - - 10 - - - -
21/07:00pm 24.2 N 9 12 1011.7 - 0.0 - - 10 - - - -
21/06:30pm 24.6 N 8 10 1011.5 - 0.0 - - 10 - - - -
21/06:00pm 25.3 N 8 9 1011.4 - 0.0 - - 10 - - - -
21/05:30pm 27.3 N 10 15 1011.3 - 0.0 - - 10 - - - -
21/05:00pm 27.7 N 10 14 1011.1 - 0.0 - - 10 - - - -
21/04:30pm 28.7 NNW 14 17 1011.1 - 0.0 - - 10 - - - -
21/04:00pm 29.2 NNW 15 20 1011.2 - 0.0 - - 10 - - - -
21/03:30pm 29.8 NNW 17 22 1011.3 - 0.0 - - 10 - - - -
21/03:00pm 29.4 NNW 17 25 1011.4 - 0.0 - - 10 - - - -
21/02:30pm 29.3 NNW 18 23 1011.7 - 0.0 - - 10 - - - -
21/02:00pm 28.9 NNW 20 28 1012.0 - 0.0 - - 10 - - - -
21/01:30pm 28.7 NNW 19 28 1012.2 - 0.0 - - 10 - - - -
21/01:00pm 28.9 NNW 18 23 1012.7 - 0.0 - - 10 - - - -
21/12:30pm 28.4 N 19 25 1013.2 - 0.0 - - 10 - - - -
21/12:00pm 28.1 N 18 25 1013.6 - 0.0 - - 10 - - - -
21/11:30am 27.1 N 17 22 1014.1 - 0.0 - - 10 - - - -
21/11:00am 25.9 N 18 25 1014.5 - 0.0 - - 10 - - - -
21/10:30am 25.2 N 18 25 1014.7 - 0.0 - - 10 - - - -

Other Formats:

Comma delimited format used in spreadsheet applications
http://www.bom.gov.au/fwo/IDS60701/IDS60701.95664.axf

JavaScript Object Notation format (JSON) in row-major order
http://www.bom.gov.au/fwo/IDS60701/IDS60701.95664.json